Terminal Aerodrome Forecast
Issued by NWS Houston/Galveston, TX

Home | Current Version | Previous Version | Text Only | Print | Product List | Glossary On
Versions: 1 2 3 4 5 6 7 8 9 10 11 12 13 14 15 16 17 18 19 20 21 22 23 24 25 26 27 28 29 30 31 32
000
FTUS44 KHGX 261956 AAA
TAFGLS
TAF AMD
KGLS 261956Z 2620/2718 14014KT 3SM HZ BKN023 BKN027
     FM270200 16014KT 4SM BR BKN017
      TEMPO 2705/2709 OVC013
     FM271500 16012KT P6SM BKN015=

USA.gov is the U.S. government's official web portal to all federal, state and local government web resources and services.